Time;durP1;ratioP1;P1;durP2;ratioP2;P2;SDS_P1;SDS_P2;PMS_P1;PMS_P2;Temp;Humidity;BMP_temperature;BMP_pressure;BME280_temperature;BME280_humidity;BME280_pressure;Samples;Min_cycle;Max_cycle;Signal;HPM_P1;HPM_P2
2022/03/20 00:00:54;;;;;;;1.20;1.10;;;6.30;90.20;;;;;;5028276;28;20157;-66
2022/03/20 00:03:22;;;;;;;1.20;0.88;;;6.20;90.20;;;;;;5013136;28;20565;-65
2022/03/20 00:05:50;;;;;;;5.80;2.17;;;6.20;90.20;;;;;;5028190;28;20029;-65
2022/03/20 00:08:16;;;;;;;0.77;0.77;;;6.10;90.10;;;;;;5013531;28;20505;-66
2022/03/20 00:10:45;;;;;;;1.02;1.02;;;6.10;90.20;;;;;;5028502;28;20052;-65
2022/03/20 00:13:20;;;;;;;2.13;1.35;;;6.10;90.20;;;;;;5011619;28;20034;-66
2022/03/20 00:15:51;;;;;;;0.55;0.55;;;6.00;90.20;;;;;;5027270;28;20608;-66
2022/03/20 00:18:21;;;;;;;1.73;1.58;;;6.10;90.20;;;;;;5028068;28;20551;-66
2022/03/20 00:20:50;;;;;;;0.88;0.88;;;6.00;90.30;;;;;;5012848;28;20075;-67
2022/03/20 00:23:18;;;;;;;2.05;1.95;;;6.00;90.00;;;;;;5027894;28;20034;-67
2022/03/20 00:25:46;;;;;;;2.85;2.60;;;6.00;90.20;;;;;;5028086;28;20037;-68
2022/03/20 00:28:15;;;;;;;0.77;0.77;;;6.00;89.80;;;;;;5028064;28;20109;-67
2022/03/20 00:30:42;;;;;;;8.80;3.10;;;6.10;89.20;;;;;;5011451;28;20026;-67
2022/03/20 00:33:08;;;;;;;1.65;1.27;;;6.10;89.40;;;;;;5011277;28;20034;-67
2022/03/20 00:35:35;;;;;;;1.05;1.00;;;6.10;89.20;;;;;;5012886;28;20113;-67
2022/03/20 00:38:01;;;;;;;0.52;0.52;;;6.10;89.40;;;;;;5011166;28;20151;-67
2022/03/20 00:40:27;;;;;;;0.35;0.35;;;6.10;88.80;;;;;;5027762;28;20057;-67
2022/03/20 00:42:53;;;;;;;2.30;2.10;;;6.10;89.00;;;;;;5012083;28;20052;-67
2022/03/20 00:45:19;;;;;;;0.90;0.90;;;6.10;89.00;;;;;;5011255;28;20025;-67
2022/03/20 00:47:45;;;;;;;7.78;1.00;;;6.20;88.80;;;;;;5012312;28;20080;-67
2022/03/20 00:50:11;;;;;;;0.57;0.57;;;6.20;88.70;;;;;;5011257;28;20025;-66
2022/03/20 00:52:37;;;;;;;0.10;0.10;;;6.10;88.90;;;;;;5010794;28;20041;-66
2022/03/20 00:55:04;;;;;;;1.25;1.15;;;6.00;89.50;;;;;;5012474;28;20374;-67
2022/03/20 00:57:29;;;;;;;2.40;1.38;;;6.00;89.50;;;;;;5012048;28;20022;-66
2022/03/20 00:59:55;;;;;;;0.55;0.55;;;6.00;89.50;;;;;;5012071;28;20108;-66
2022/03/20 01:02:21;;;;;;;1.55;1.45;;;6.00;89.40;;;;;;5011706;28;20034;-66
2022/03/20 01:04:47;;;;;;;0.35;0.35;;;6.00;89.00;;;;;;5011003;28;20335;-66
2022/03/20 01:07:13;;;;;;;0.68;0.68;;;6.00;88.30;;;;;;5012071;28;20026;-66
2022/03/20 01:09:40;;;;;;;0.88;0.85;;;6.00;88.10;;;;;;5011866;28;20167;-66
2022/03/20 01:12:08;;;;;;;1.13;1.05;;;6.00;88.40;;;;;;5011852;28;20076;-66
2022/03/20 01:14:35;;;;;;;1.30;1.20;;;5.90;88.70;;;;;;5010861;28;20188;-66
2022/03/20 01:17:01;;;;;;;0.57;0.57;;;6.00;88.20;;;;;;5011992;28;20026;-66
2022/03/20 01:19:27;;;;;;;0.22;0.22;;;6.00;88.00;;;;;;5010833;28;20112;-66
2022/03/20 01:21:55;;;;;;;0.10;0.10;;;6.10;87.70;;;;;;5010381;28;20057;-66
2022/03/20 01:24:24;;;;;;;2.05;1.38;;;6.20;86.60;;;;;;5010257;28;20460;-66
2022/03/20 01:26:50;;;;;;;1.15;1.13;;;6.20;87.30;;;;;;5010218;28;20081;-66
2022/03/20 01:29:16;;;;;;;0.68;0.68;;;6.10;87.70;;;;;;5011667;28;20033;-66
2022/03/20 01:31:41;;;;;;;2.75;2.10;;;6.00;88.00;;;;;;5011329;28;20504;-66
2022/03/20 01:34:07;;;;;;;1.92;1.13;;;6.00;88.20;;;;;;5026885;28;20056;-66
2022/03/20 01:36:33;;;;;;;0.43;0.43;;;6.00;88.20;;;;;;5011679;28;20455;-66
2022/03/20 01:38:59;;;;;;;1.60;1.48;;;5.90;88.30;;;;;;5011447;28;20033;-66
2022/03/20 01:41:26;;;;;;;6.43;5.88;;;6.00;87.60;;;;;;5011081;28;20044;-66
2022/03/20 01:43:59;;;;;;;0.68;0.68;;;6.50;99.90;;;;;;5026703;28;20038;-66
2022/03/20 01:46:26;;;;;;;0.35;0.35;;;6.20;89.80;;;;;;5026225;28;20646;-66
2022/03/20 01:48:52;;;;;;;0.82;0.82;;;6.10;89.10;;;;;;5010047;28;20029;-66
2022/03/20 01:52:10;;;;;;;3.85;2.90;;;6.00;88.00;;;;;;5009650;28;20037;-66
2022/03/20 01:54:06;;;;;;;7.43;1.50;;;6.10;87.80;;;;;;5023442;28;20034;-66
2022/03/20 01:56:33;;;;;;;3.13;2.17;;;6.00;88.20;;;;;;5011126;28;20515;-66
2022/03/20 01:59:03;;;;;;;1.50;1.02;;;6.00;88.20;;;;;;5010118;28;20042;-66
2022/03/20 02:01:30;;;;;;;2.45;1.75;;;6.00;87.80;;;;;;5011136;28;20116;-66
2022/03/20 02:03:55;;;;;;;2.88;1.58;;;6.10;87.20;;;;;;5026390;28;20544;-66
2022/03/20 02:06:25;;;;;;;1.38;1.23;;;6.10;86.90;;;;;;4993290;28;20061;-66
2022/03/20 02:08:51;;;;;;;0.77;0.52;;;6.10;87.50;;;;;;5010226;28;20033;-66
2022/03/20 02:11:17;;;;;;;1.45;1.35;;;6.00;87.30;;;;;;5025728;28;20030;-66
2022/03/20 02:13:43;;;;;;;0.50;0.50;;;6.10;87.10;;;;;;5025728;28;20029;-66
2022/03/20 02:16:09;;;;;;;1.70;1.60;;;6.10;87.70;;;;;;5025755;28;20084;-66
2022/03/20 02:18:36;;;;;;;0.75;0.75;;;6.00;87.70;;;;;;5011017;28;20032;-66
2022/03/20 02:21:02;;;;;;;1.02;1.02;;;6.00;87.50;;;;;;5025712;28;20053;-66
2022/03/20 02:23:30;;;;;;;0.55;0.55;;;6.10;86.80;;;;;;5026073;28;20026;-66
2022/03/20 02:25:56;;;;;;;2.55;2.35;;;6.10;86.80;;;;;;5010451;28;20042;-66
2022/03/20 02:28:22;;;;;;;0.68;0.68;;;6.20;86.20;;;;;;5025881;28;20026;-66
2022/03/20 02:30:48;;;;;;;2.20;2.10;;;6.20;86.40;;;;;;4993039;28;20033;-66
2022/03/20 02:33:14;;;;;;;0.25;0.25;;;6.20;86.80;;;;;;5010374;28;20113;-66
2022/03/20 02:35:40;;;;;;;4.28;2.42;;;6.20;86.60;;;;;;5009112;28;20025;-66
2022/03/20 02:38:10;;;;;;;1.23;1.20;;;6.10;86.90;;;;;;5009313;28;20025;-66
2022/03/20 02:40:37;;;;;;;0.85;0.85;;;6.10;87.10;;;;;;5008938;28;20033;-66
2022/03/20 02:43:06;;;;;;;0.80;0.80;;;6.10;86.60;;;;;;5009101;28;20041;-66
2022/03/20 02:45:32;;;;;;;2.92;1.92;;;6.10;86.60;;;;;;5010471;28;20030;-66
2022/03/20 02:48:00;;;;;;;1.27;1.25;;;6.10;86.40;;;;;;5010421;28;20040;-66
2022/03/20 02:50:34;;;;;;;0.10;0.10;;;6.20;86.20;;;;;;5010195;28;20469;-66
2022/03/20 02:53:04;;;;;;;3.75;0.93;;;6.20;86.60;;;;;;5010055;28;20030;-66
2022/03/20 02:55:36;;;;;;;1.17;1.08;;;6.10;87.00;;;;;;5008935;28;20544;-66
2022/03/20 02:58:12;;;;;;;0.10;0.10;;;6.10;87.20;;;;;;5009030;28;20116;-66
2022/03/20 03:00:40;;;;;;;1.25;1.20;;;6.00;87.40;;;;;;5010225;28;20584;-66
2022/03/20 03:03:11;;;;;;;1.20;1.05;;;6.10;87.30;;;;;;4992487;28;20030;-66
2022/03/20 03:05:38;;;;;;;1.50;1.40;;;6.00;87.10;;;;;;5009097;28;20748;-66
2022/03/20 03:10:56;;;;;;;11.27;1.65;;;5.90;87.60;;;;;;5010183;28;20519;-66
2022/03/20 03:13:42;;;;;;;0.08;0.08;;;6.00;87.70;;;;;;5009855;28;20042;-66
2022/03/20 03:16:11;;;;;;;2.45;1.42;;;6.00;87.10;;;;;;5010170;28;20034;-66
2022/03/20 03:18:39;;;;;;;0.13;0.13;;;6.00;87.10;;;;;;5010173;28;20439;-66
2022/03/20 03:21:10;;;;;;;2.08;1.98;;;6.00;87.20;;;;;;5011980;28;20029;-66
2022/03/20 03:23:39;;;;;;;2.45;2.25;;;5.90;87.40;;;;;;5013604;28;20088;-66
2022/03/20 03:26:06;;;;;;;3.20;1.67;;;6.00;87.40;;;;;;5013672;28;20030;-66
2022/03/20 03:28:34;;;;;;;7.43;2.60;;;6.00;87.20;;;;;;4993193;28;20034;-66
2022/03/20 03:31:08;;;;;;;0.73;0.73;;;6.00;87.60;;;;;;4994412;28;20034;-66
2022/03/20 03:35:41;;;;;;;2.75;1.20;;;6.00;87.20;;;;;;5009132;28;20475;-66
2022/03/20 03:36:22;;;;;;;2.63;0.60;;;5.90;87.40;;;;;;4992955;28;20394;-66
2022/03/20 03:38:48;;;;;;;0.73;0.73;;;5.90;87.30;;;;;;4994251;28;20041;-66
2022/03/20 03:41:14;;;;;;;2.03;1.85;;;6.00;87.30;;;;;;4993852;28;20046;-65
2022/03/20 03:43:39;;;;;;;0.88;0.85;;;6.00;87.50;;;;;;4993777;28;20027;-65
2022/03/20 03:46:05;;;;;;;0.75;0.75;;;6.00;87.40;;;;;;4993984;28;20039;-66
2022/03/20 03:48:32;;;;;;;0.45;0.45;;;6.00;87.80;;;;;;4993857;28;20170;-66
2022/03/20 03:50:57;;;;;;;1.05;1.05;;;5.90;88.40;;;;;;4994029;28;20030;-66
2022/03/20 03:53:23;;;;;;;0.73;0.70;;;5.90;88.20;;;;;;4993806;28;20049;-66
2022/03/20 03:55:49;;;;;;;8.93;2.17;;;5.80;90.00;;;;;;4992766;28;20030;-66
2022/03/20 03:58:15;;;;;;;1.67;1.02;;;5.70;90.20;;;;;;4993603;28;20054;-66
2022/03/20 04:00:43;;;;;;;3.72;3.10;;;5.60;90.10;;;;;;4993819;28;20030;-66
2022/03/20 04:03:09;;;;;;;1.15;1.10;;;5.60;90.10;;;;;;4991986;28;20120;-66
2022/03/20 04:05:34;;;;;;;0.30;0.30;;;5.90;88.30;;;;;;4992296;28;20069;-66
2022/03/20 04:08:00;;;;;;;1.83;1.08;;;5.90;88.00;;;;;;4993459;28;20120;-66
2022/03/20 04:10:26;;;;;;;7.57;4.00;;;5.90;88.70;;;;;;4993459;28;20032;-66
2022/03/20 04:12:52;;;;;;;1.20;1.13;;;5.90;88.70;;;;;;4991878;28;20034;-66
2022/03/20 04:15:24;;;;;;;1.98;1.85;;;5.80;89.70;;;;;;4993506;28;20109;-66
2022/03/20 04:17:51;;;;;;;1.83;0.80;;;5.70;89.90;;;;;;4993277;28;20077;-66
2022/03/20 04:20:20;;;;;;;0.28;0.28;;;5.70;89.60;;;;;;4992285;28;20578;-66
2022/03/20 04:25:32;;;;;;;0.55;0.55;;;5.60;90.20;;;;;;4992315;28;20038;-66
2022/03/20 04:27:59;;;;;;;0.40;0.40;;;5.50;90.70;;;;;;5007921;28;20036;-66
2022/03/20 04:30:28;;;;;;;2.10;2.00;;;5.50;90.90;;;;;;5012568;28;20583;-66
2022/03/20 04:32:57;;;;;;;0.45;0.45;;;5.50;90.70;;;;;;5010905;28;20077;-66
2022/03/20 04:35:24;;;;;;;1.05;1.05;;;5.50;90.60;;;;;;5028182;28;20452;-67
2022/03/20 04:37:56;;;;;;;0.45;0.45;;;5.50;90.60;;;;;;5027674;28;20037;-66
2022/03/20 04:40:22;;;;;;;1.27;1.17;;;5.50;90.70;;;;;;5027637;28;20038;-66
2022/03/20 04:42:51;;;;;;;0.75;0.75;;;5.50;90.90;;;;;;5012040;28;20030;-66
2022/03/20 04:45:18;;;;;;;1.65;1.55;;;5.40;91.30;;;;;;5027537;28;20038;-66
2022/03/20 04:58:43;;;;;;;0.20;0.20;;;5.30;91.80;;;;;;5012141;28;20038;-66
2022/03/20 05:01:09;;;;;;;3.40;2.67;;;5.10;92.90;;;;;;5012221;28;20026;-66
2022/03/20 05:03:35;;;;;;;0.25;0.25;;;5.10;92.60;;;;;;5012121;28;20454;-66
2022/03/20 05:06:07;;;;;;;0.30;0.30;;;5.20;92.80;;;;;;5012404;28;20029;-66
2022/03/20 05:08:38;;;;;;;1.50;0.88;;;5.10;92.70;;;;;;5026891;28;20032;-66
2022/03/20 05:13:48;;;;;;;2.28;1.40;;;5.20;93.10;;;;;;5024582;28;20037;-66
2022/03/20 05:16:14;;;;;;;2.33;1.95;;;5.20;92.70;;;;;;5027191;28;20110;-66
2022/03/20 05:18:40;;;;;;;0.40;0.40;;;5.20;92.30;;;;;;5026898;28;20550;-66
2022/03/20 05:21:06;;;;;;;0.45;0.45;;;5.30;92.40;;;;;;5010563;28;20084;-66
2022/03/20 05:23:33;;;;;;;0.57;0.57;;;5.30;93.10;;;;;;5011532;28;20117;-66
2022/03/20 05:25:58;;;;;;;1.40;1.02;;;5.10;93.50;;;;;;5011793;28;20030;-66
2022/03/20 05:28:24;;;;;;;24.10;2.33;;;5.20;93.80;;;;;;5011494;28;20157;-66
2022/03/20 05:30:50;;;;;;;1.85;1.75;;;5.20;93.50;;;;;;5011736;28;20026;-66
2022/03/20 05:33:16;;;;;;;1.52;1.42;;;5.20;93.60;;;;;;4993736;28;20073;-66
2022/03/20 05:35:47;;;;;;;2.40;2.20;;;5.20;93.70;;;;;;5010093;28;20057;-65
2022/03/20 05:38:13;;;;;;;1.30;1.20;;;5.20;93.60;;;;;;4994509;28;20037;-65
2022/03/20 05:40:41;;;;;;;0.35;0.35;;;5.20;93.30;;;;;;5010118;28;20033;-65
2022/03/20 05:43:08;;;;;;;1.48;1.38;;;5.30;93.20;;;;;;5020755;23;20041;-69
2022/03/20 05:45:39;;;;;;;3.97;1.83;;;5.40;93.00;;;;;;4990347;28;20505;-70
2022/03/20 05:48:08;;;;;;;2.33;2.20;;;5.60;92.70;;;;;;4991755;28;20190;-68
2022/03/20 05:50:34;;;;;;;0.30;0.30;;;5.70;92.50;;;;;;4991600;28;20031;-68
2022/03/20 05:53:00;;;;;;;5.10;2.53;;;5.80;92.30;;;;;;4990200;28;20030;-69
2022/03/20 05:58:15;;;;;;;3.53;3.13;;;5.90;92.50;;;;;;4991740;28;20054;-69
2022/03/20 06:00:41;;;;;;;1.00;1.00;;;6.10;92.50;;;;;;4991311;28;20192;-69
2022/03/20 06:03:09;;;;;;;0.95;0.95;;;6.00;92.60;;;;;;4990194;28;20061;-69
2022/03/20 06:05:36;;;;;;;0.20;0.20;;;6.10;92.80;;;;;;4974272;28;20030;-70
2022/03/20 06:08:01;;;;;;;6.22;2.03;;;6.20;92.90;;;;;;4989970;28;20120;-70
2022/03/20 06:10:28;;;;;;;0.93;0.93;;;6.30;93.00;;;;;;4989947;28;20066;-69
2022/03/20 06:12:54;;;;;;;3.65;2.70;;;6.40;92.60;;;;;;4991219;28;20110;-70
2022/03/20 06:15:19;;;;;;;2.25;2.13;;;6.50;92.50;;;;;;4991289;28;20034;-70
2022/03/20 06:17:45;;;;;;;5.15;0.95;;;6.60;92.20;;;;;;4990284;28;20042;-69
2022/03/20 06:20:16;;;;;;;2.45;1.65;;;6.60;92.20;;;;;;4991537;28;20027;-69
2022/03/20 06:22:47;;;;;;;2.40;1.30;;;6.70;91.80;;;;;;4989640;28;20040;-69
2022/03/20 06:25:15;;;;;;;1.73;1.63;;;6.70;91.80;;;;;;4991289;28;20054;-69
2022/03/20 06:27:50;;;;;;;1.02;0.93;;;6.70;91.90;;;;;;4990799;28;20117;-69
2022/03/20 06:30:18;;;;;;;2.00;1.85;;;6.70;92.00;;;;;;4990633;28;20159;-68
2022/03/20 06:32:45;;;;;;;1.15;1.13;;;6.80;92.00;;;;;;4990655;28;20433;-70
2022/03/20 06:35:12;;;;;;;2.83;2.15;;;6.80;92.10;;;;;;5006127;28;20061;-69
2022/03/20 06:37:42;;;;;;;1.38;1.27;;;6.80;91.90;;;;;;5005904;28;20569;-69
2022/03/20 06:40:09;;;;;;;0.28;0.28;;;6.90;91.90;;;;;;5005937;28;20049;-69
2022/03/20 06:42:37;;;;;;;3.58;3.22;;;6.80;92.10;;;;;;5005503;28;20445;-69
2022/03/20 06:45:07;;;;;;;1.38;1.27;;;6.90;92.00;;;;;;4990726;28;20083;-70
2022/03/20 06:47:35;;;;;;;1.53;1.43;;;7.00;91.90;;;;;;4990622;28;20472;-69
2022/03/20 06:50:02;;;;;;;0.40;0.40;;;7.00;92.00;;;;;;4990378;28;20285;-70
2022/03/20 06:52:29;;;;;;;1.00;1.00;;;7.00;92.00;;;;;;4990007;28;20478;-69
2022/03/20 06:54:59;;;;;;;6.88;2.75;;;7.10;91.90;;;;;;4989042;28;20088;-69
2022/03/20 06:57:26;;;;;;;0.25;0.25;;;7.10;92.50;;;;;;5005655;28;20105;-69
2022/03/20 06:59:55;;;;;;;1.95;1.85;;;7.10;92.60;;;;;;4993329;28;20042;-69
2022/03/20 07:02:21;;;;;;;0.73;0.73;;;7.10;92.40;;;;;;4976507;28;20109;-70
2022/03/20 07:04:47;;;;;;;0.10;0.10;;;7.10;93.00;;;;;;4969285;28;20027;-70
2022/03/20 07:07:17;;;;;;;2.42;2.22;;;7.10;92.90;;;;;;4979673;28;20093;-69
2022/03/20 07:09:43;;;;;;;7.57;2.50;;;7.20;92.30;;;;;;4975489;28;20061;-69
2022/03/20 07:12:11;;;;;;;3.88;0.82;;;7.30;92.40;;;;;;4982377;28;20030;-68
2022/03/20 07:14:44;;;;;;;6.07;1.83;;;7.30;92.40;;;;;;5005284;28;20482;-68
2022/03/20 07:17:13;;;;;;;1.85;1.75;;;7.30;92.50;;;;;;4990484;28;20023;-67
2022/03/20 07:19:43;;;;;;;1.95;1.85;;;7.40;92.80;;;;;;4990475;28;20088;-68
2022/03/20 07:22:10;;;;;;;2.83;2.53;;;7.50;92.30;;;;;;5004871;28;20026;-67
2022/03/20 07:24:40;;;;;;;1.55;1.45;;;7.50;92.70;;;;;;5004667;28;20042;-77
2022/03/20 07:30:12;;;;;;;3.33;2.55;;;7.70;92.40;;;;;;5002458;28;20041;-69
2022/03/20 07:32:37;;;;;;;0.20;0.20;;;7.70;92.20;;;;;;5004561;28;20022;-68
2022/03/20 07:35:04;;;;;;;0.45;0.45;;;7.80;92.10;;;;;;4990027;28;20085;-69
2022/03/20 07:37:30;;;;;;;1.45;1.35;;;7.90;92.30;;;;;;4989432;28;20059;-69
2022/03/20 07:39:55;;;;;;;1.95;1.85;;;7.90;92.30;;;;;;4988467;28;20042;-64
2022/03/20 07:43:47;;;;;;;1.13;1.08;;;8.10;92.10;;;;;;5066873;28;20769;-63
2022/03/20 07:46:12;;;;;;;2.15;1.95;;;8.20;92.30;;;;;;5047005;28;20033;-63
2022/03/20 07:48:39;;;;;;;3.55;3.28;;;8.30;92.20;;;;;;5042306;28;20033;-64
2022/03/20 07:51:05;;;;;;;1.00;0.95;;;8.50;91.60;;;;;;5046755;28;20048;-60
2022/03/20 07:53:31;;;;;;;2.42;2.22;;;8.60;92.00;;;;;;5044949;28;20069;-60
2022/03/20 07:55:57;;;;;;;8.05;2.40;;;8.70;91.80;;;;;;5046382;28;20639;-57
2022/03/20 07:58:22;;;;;;;1.48;1.38;;;8.80;91.50;;;;;;5047178;28;20021;-57
2022/03/20 08:00:48;;;;;;;0.43;0.40;;;8.80;91.50;;;;;;5045817;28;20036;-57
2022/03/20 08:03:15;;;;;;;2.53;2.33;;;8.90;91.50;;;;;;5042774;28;20104;-64
2022/03/20 08:05:41;;;;;;;7.13;1.30;;;9.00;91.20;;;;;;5045049;28;20030;-63
2022/03/20 08:08:14;;;;;;;1.17;1.08;;;9.20;90.70;;;;;;5046526;28;20040;-62
2022/03/20 08:10:41;;;;;;;1.67;1.42;;;9.30;91.20;;;;;;5046750;28;20032;-63
2022/03/20 08:13:09;;;;;;;1.17;1.15;;;9.40;91.60;;;;;;5046616;28;20032;-64
2022/03/20 08:15:37;;;;;;;1.23;1.17;;;9.40;90.70;;;;;;5046924;28;20033;-64
2022/03/20 08:18:07;;;;;;;0.90;0.88;;;9.50;90.60;;;;;;5028442;28;20519;-67
2022/03/20 08:20:33;;;;;;;3.55;1.90;;;9.60;90.90;;;;;;5028705;28;20519;-63
2022/03/20 08:23:00;;;;;;;0.60;0.60;;;9.60;90.30;;;;;;5046068;28;20033;-63
2022/03/20 08:25:26;;;;;;;3.53;2.08;;;9.70;90.30;;;;;;5046145;28;20358;-64
2022/03/20 08:27:53;;;;;;;2.22;2.08;;;9.70;90.60;;;;;;5045271;28;20032;-64
2022/03/20 08:30:20;;;;;;;0.93;0.93;;;9.80;90.60;;;;;;5044860;28;20032;-67
2022/03/20 08:32:49;;;;;;;1.65;1.55;;;9.90;91.50;;;;;;5044189;28;20032;-66
2022/03/20 08:35:17;;;;;;;7.13;2.35;;;10.00;90.50;;;;;;5046437;28;20190;-66
2022/03/20 08:37:48;;;;;;;0.40;0.40;;;10.20;90.90;;;;;;5045985;28;20033;-65
2022/03/20 08:40:19;;;;;;;1.05;0.98;;;10.00;92.00;;;;;;5044754;28;20727;-65
2022/03/20 08:42:56;;;;;;;0.80;0.80;;;10.10;91.20;;;;;;5045847;28;20045;-64
2022/03/20 08:45:31;;;;;;;1.30;1.25;;;10.20;90.30;;;;;;5046092;28;20057;-66
2022/03/20 08:47:58;;;;;;;0.90;0.70;;;10.20;90.80;;;;;;5043310;28;20501;-72
2022/03/20 08:50:24;;;;;;;1.33;1.23;;;10.10;91.00;;;;;;5033438;28;20163;-65
2022/03/20 08:52:51;;;;;;;0.45;0.45;;;10.00;91.20;;;;;;5034639;28;20025;-66
2022/03/20 08:55:17;;;;;;;1.25;0.60;;;10.00;91.20;;;;;;5030716;28;20662;-66
2022/03/20 08:57:47;;;;;;;2.20;1.83;;;10.00;91.00;;;;;;5033173;28;20060;-66
2022/03/20 09:00:18;;;;;;;4.50;2.10;;;10.00;91.10;;;;;;5031747;28;20602;-66
2022/03/20 09:02:46;;;;;;;4.05;2.10;;;10.10;91.60;;;;;;5014891;28;20310;-66
2022/03/20 09:05:13;;;;;;;0.10;0.10;;;10.10;91.70;;;;;;5032788;28;20513;-65
2022/03/20 09:07:43;;;;;;;2.03;1.77;;;10.10;91.90;;;;;;5032954;28;20068;-68
2022/03/20 09:10:11;;;;;;;1.27;1.17;;;10.20;92.10;;;;;;5031146;28;20508;-66
2022/03/20 09:12:38;;;;;;;7.18;4.53;;;10.30;91.80;;;;;;5032288;28;20443;-66
2022/03/20 09:15:06;;;;;;;2.22;2.10;;;10.30;91.90;;;;;;5031647;28;20395;-65
2022/03/20 09:20:17;;;;;;;0.57;0.57;;;10.30;91.40;;;;;;5028762;28;20033;-65
2022/03/20 09:22:43;;;;;;;1.45;1.35;;;10.40;91.50;;;;;;5012620;28;20030;-64
2022/03/20 09:25:09;;;;;;;1.92;1.23;;;10.50;91.60;;;;;;5012495;28;20040;-64
2022/03/20 09:27:35;;;;;;;2.75;2.55;;;10.60;91.40;;;;;;5012473;28;20129;-63
2022/03/20 09:30:05;;;;;;;0.77;0.40;;;10.80;91.60;;;;;;5011176;28;20565;-63
2022/03/20 09:32:31;;;;;;;1.08;1.05;;;10.80;91.10;;;;;;5011694;28;20088;-63
2022/03/20 09:34:57;;;;;;;1.95;1.85;;;10.80;91.40;;;;;;4968596;28;20066;-64
2022/03/20 09:37:23;;;;;;;4.35;1.50;;;10.80;91.30;;;;;;5001548;28;20034;-63
2022/03/20 09:39:48;;;;;;;16.63;4.25;;;10.80;92.00;;;;;;5012185;28;20033;-64
2022/03/20 09:42:17;;;;;;;1.08;1.02;;;10.90;92.00;;;;;;5011616;28;20115;-64
2022/03/20 09:44:42;;;;;;;1.23;1.13;;;10.90;92.10;;;;;;5027132;28;20080;-68
2022/03/20 09:47:19;;;;;;;1.27;1.17;;;10.90;92.20;;;;;;5012499;28;20030;-65
2022/03/20 09:49:48;;;;;;;0.45;0.43;;;10.90;91.60;;;;;;5027307;28;20022;-64
2022/03/20 09:52:16;;;;;;;2.70;2.53;;;10.80;91.30;;;;;;5010818;28;20117;-65
2022/03/20 09:54:43;;;;;;;0.95;0.95;;;10.80;91.80;;;;;;5012199;28;20041;-65
2022/03/20 09:57:12;;;;;;;1.45;1.35;;;10.70;91.20;;;;;;5011807;28;20370;-65
2022/03/20 09:59:40;;;;;;;1.13;1.10;;;10.70;91.20;;;;;;5027028;28;20116;-65
2022/03/20 10:02:11;;;;;;;6.43;4.15;;;10.70;91.10;;;;;;5011813;28;20034;-65
2022/03/20 10:05:00;;;;;;;;;;;10.70;91.00;;;;;;5027176;28;20084;-65
2022/03/20 10:07:40;;;;;;;0.57;0.57;;;10.70;91.50;;;;;;5011804;28;19910;-64
2022/03/20 10:10:25;;;;;;;1.08;1.08;;;10.70;90.90;;;;;;5026784;28;20113;-65
2022/03/20 10:12:55;;;;;;;1.08;1.08;;;10.80;91.10;;;;;;5011509;28;20026;-65
2022/03/20 10:15:32;;;;;;;5.07;2.00;;;10.90;91.30;;;;;;5027217;28;20393;-64
2022/03/20 10:18:24;;;;;;;2.80;2.28;;;11.10;91.00;;;;;;5011456;28;20362;-65
2022/03/20 10:20:59;;;;;;;3.58;2.85;;;11.20;90.60;;;;;;5011693;28;20059;-65
2022/03/20 10:23:42;;;;;;;0.82;0.82;;;11.30;90.50;;;;;;5025579;28;20109;-65
2022/03/20 10:26:16;;;;;;;2.70;2.00;;;11.30;90.80;;;;;;5011688;28;20033;-64
2022/03/20 10:28:55;;;;;;;5.93;2.70;;;11.50;90.90;;;;;;5026754;28;20030;-64
2022/03/20 10:31:21;;;;;;;2.15;2.05;;;11.50;90.80;;;;;;5025603;28;20485;-65
2022/03/20 10:34:07;;;;;;;8.00;1.60;;;11.60;90.20;;;;;;5011198;28;20061;-65
2022/03/20 10:36:35;;;;;;;1.35;0.95;;;11.60;90.10;;;;;;5011689;28;20401;-64
2022/03/20 10:39:02;;;;;;;13.57;3.22;;;11.80;90.10;;;;;;5026268;28;20030;-64
2022/03/20 10:41:38;;;;;;;5.05;4.13;;;11.80;90.60;;;;;;5010794;28;20550;-65
2022/03/20 10:44:19;;;;;;;0.93;0.93;;;11.90;90.40;;;;;;5010098;28;20037;-64
2022/03/20 10:47:04;;;;;;;1.75;1.40;;;11.90;90.20;;;;;;5011347;28;20103;-64
2022/03/20 10:49:32;;;;;;;1.70;1.60;;;11.90;90.10;;;;;;5011499;28;20030;-65
2022/03/20 10:52:10;;;;;;;1.13;1.10;;;12.00;89.50;;;;;;5026454;28;20107;-66
2022/03/20 10:54:54;;;;;;;0.40;0.40;;;12.10;88.80;;;;;;5014663;28;20030;-65
2022/03/20 10:57:22;;;;;;;2.05;1.67;;;12.20;89.40;;;;;;5011626;28;20045;-65
2022/03/20 11:00:05;;;;;;;2.28;2.05;;;12.20;89.00;;;;;;5026255;28;20030;-66
2022/03/20 11:02:30;;;;;;;3.25;1.75;;;12.20;88.70;;;;;;5025137;28;20033;-65
2022/03/20 11:04:56;;;;;;;2.15;1.95;;;12.30;90.00;;;;;;5011150;28;20350;-65
2022/03/20 11:07:27;;;;;;;0.40;0.40;;;12.30;90.30;;;;;;5011062;28;20411;-65
2022/03/20 11:09:55;;;;;;;8.43;3.92;;;12.20;90.90;;;;;;5009789;28;20030;-65
2022/03/20 11:12:32;;;;;;;0.20;0.20;;;12.20;91.10;;;;;;5025925;28;20037;-66
2022/03/20 11:15:07;;;;;;;2.70;1.50;;;12.30;90.70;;;;;;5009798;28;20048;-65
2022/03/20 11:17:39;;;;;;;1.83;1.70;;;12.30;90.80;;;;;;5010837;28;20041;-66
2022/03/20 11:20:07;;;;;;;3.97;1.30;;;12.40;91.40;;;;;;5009607;28;20417;-66
2022/03/20 11:22:42;;;;;;;1.20;1.10;;;12.40;92.40;;;;;;5018912;28;20019;-67
2022/03/20 11:25:08;;;;;;;2.20;2.10;;;12.50;92.70;;;;;;5045025;28;20034;-66
2022/03/20 11:27:40;;;;;;;1.50;1.20;;;12.60;92.70;;;;;;5019162;28;20207;-65
2022/03/20 11:30:07;;;;;;;0.00;0.00;;;12.60;92.80;;;;;;5010580;28;20030;-65
2022/03/20 11:32:35;;;;;;;2.15;1.33;;;12.70;92.90;;;;;;5008992;28;20045;-66
2022/03/20 11:35:05;;;;;;;0.50;0.50;;;12.60;93.10;;;;;;5010316;28;20088;-66
2022/03/20 11:37:48;;;;;;;2.42;1.00;;;12.60;93.10;;;;;;5009725;28;20029;-66
2022/03/20 11:40:20;;;;;;;5.93;2.95;;;12.80;93.40;;;;;;4993041;28;20040;-65
2022/03/20 11:42:48;;;;;;;1.77;1.48;;;12.70;92.80;;;;;;5010307;28;20034;-67
2022/03/20 11:45:20;;;;;;;2.80;1.25;;;12.80;92.60;;;;;;4977711;23;20057;-74
2022/03/20 11:48:11;;;;;;;1.35;1.30;;;12.90;92.90;;;;;;4970095;28;20030;-71
2022/03/20 11:50:44;;;;;;;0.95;0.95;;;13.00;93.30;;;;;;4969999;28;20027;-72
2022/03/20 11:53:13;;;;;;;0.40;0.40;;;13.00;93.00;;;;;;4971361;28;20494;-71
2022/03/20 11:55:48;;;;;;;2.67;1.95;;;13.00;93.10;;;;;;4935033;29;20078;-72
2022/03/20 11:58:24;;;;;;;0.30;0.30;;;12.90;93.00;;;;;;4951904;28;20035;-72
2022/03/20 12:01:03;;;;;;;0.63;0.47;;;13.10;93.20;;;;;;4952120;28;20031;-72
2022/03/20 12:04:03;;;;;;;0.73;0.73;;;13.40;93.00;;;;;;4950682;29;20047;-72
2022/03/20 12:07:19;;;;;;;1.48;0.80;;;13.30;92.70;;;;;;4952166;29;20110;-72
2022/03/20 12:09:56;;;;;;;2.03;1.85;;;13.30;93.10;;;;;;4952336;29;20027;-72
2022/03/20 12:13:12;;;;;;;0.77;0.77;;;13.50;92.70;;;;;;4951450;29;20484;-72
2022/03/20 12:15:44;;;;;;;0.40;0.40;;;13.80;93.00;;;;;;4937061;29;20034;-72
2022/03/20 12:18:11;;;;;;;1.40;0.60;;;14.10;92.60;;;;;;4952030;29;20503;-72
2022/03/20 12:20:59;;;;;;;0.88;0.88;;;14.10;92.30;;;;;;4951552;28;20399;-72
2022/03/20 12:23:38;;;;;;;0.63;0.57;;;14.00;92.50;;;;;;4951516;28;20040;-72
2022/03/20 12:26:31;;;;;;;62.67;2.25;;;14.20;92.30;;;;;;4950644;28;20031;-72
2022/03/20 12:29:35;;;;;;;1.00;1.00;;;14.30;92.00;;;;;;4951821;28;20383;-72
2022/03/20 12:32:15;;;;;;;5.07;2.88;;;14.00;92.20;;;;;;4955041;28;20023;-73
2022/03/20 12:34:43;;;;;;;2.00;0.52;;;14.30;92.30;;;;;;4955127;28;20090;-73
2022/03/20 12:37:37;;;;;;;14.60;2.85;;;14.60;91.80;;;;;;4955503;28;20023;-74
2022/03/20 12:40:02;;;;;;;0.03;0.03;;;15.10;91.60;;;;;;4946899;28;20036;-74
2022/03/20 12:42:31;;;;;;;2.80;1.48;;;16.00;91.20;;;;;;4954609;28;20045;-74
2022/03/20 12:44:57;;;;;;;1.02;0.98;;;16.40;88.10;;;;;;4953742;29;20126;-74
2022/03/20 12:47:25;;;;;;;2.40;0.85;;;17.10;87.00;;;;;;4938162;29;20035;-74
2022/03/20 12:50:09;;;;;;;0.63;0.50;;;17.00;86.30;;;;;;4954979;28;20031;-74
2022/03/20 12:52:36;;;;;;;0.05;0.05;;;17.00;86.50;;;;;;4953979;29;20027;-74
2022/03/20 12:55:10;;;;;;;2.13;1.02;;;16.20;88.50;;;;;;4953791;29;20428;-73
2022/03/20 12:57:44;;;;;;;0.35;0.30;;;16.10;88.90;;;;;;4953661;29;20483;-74
2022/03/20 13:00:19;;;;;;;0.70;0.70;;;16.90;87.10;;;;;;4953571;29;20550;-74
2022/03/20 13:03:15;;;;;;;0.68;0.65;;;17.50;84.90;;;;;;4937075;28;20027;-72
2022/03/20 13:05:50;;;;;;;0.30;0.30;;;17.70;84.00;;;;;;4969694;28;20031;-71
2022/03/20 13:08:31;;;;;;;0.47;0.43;;;17.90;82.80;;;;;;4953434;29;20031;-72
2022/03/20 13:11:48;;;;;;;3.55;2.40;;;18.10;82.50;;;;;;4953621;28;20040;-71
2022/03/20 13:13:52;;;;;;;2.70;1.45;;;17.60;84.10;;;;;;4954586;29;20046;-71
2022/03/20 13:16:18;;;;;;;0.45;0.45;;;17.00;86.00;;;;;;4937494;29;20475;-72
2022/03/20 13:18:45;;;;;;;0.47;0.47;;;17.00;86.20;;;;;;4937304;29;20039;-71
2022/03/20 13:21:11;;;;;;;0.43;0.43;;;17.10;87.30;;;;;;4953191;29;20081;-72
2022/03/20 13:23:37;;;;;;;2.53;1.38;;;17.60;87.10;;;;;;4953274;28;20047;-72
2022/03/20 13:26:03;;;;;;;2.38;1.70;;;17.40;84.70;;;;;;4952992;28;20110;-72
2022/03/20 13:28:40;;;;;;;0.82;0.82;;;17.30;84.30;;;;;;4953293;29;20034;-73
2022/03/20 13:31:19;;;;;;;3.58;2.35;;;17.40;84.60;;;;;;4953179;29;20031;-72
2022/03/20 13:33:53;;;;;;;0.35;0.35;;;17.20;85.30;;;;;;4952776;28;20031;-72
2022/03/20 13:36:23;;;;;;;1.33;0.98;;;17.20;84.50;;;;;;4953193;29;20039;-72